sensor_id;sensor_type;location;lat;lon;timestamp;P1;durP1;ratioP1;P2;durP2;ratioP2
21272;SDS011;36726;52.328;10.552;2022-10-16T00:01:16;0.75;;;0.75;;
21272;SDS011;36726;52.328;10.552;2022-10-16T00:03:45;1.92;;;1.05;;
21272;SDS011;36726;52.328;10.552;2022-10-16T00:06:13;3.85;;;0.93;;
21272;SDS011;36726;52.328;10.552;2022-10-16T00:08:40;1.08;;;0.77;;
21272;SDS011;36726;52.328;10.552;2022-10-16T00:11:08;1.50;;;0.93;;
21272;SDS011;36726;52.328;10.552;2022-10-16T00:13:38;1.70;;;0.95;;
21272;SDS011;36726;52.328;10.552;2022-10-16T00:16:07;2.05;;;1.10;;
21272;SDS011;36726;52.328;10.552;2022-10-16T00:18:34;2.13;;;0.98;;
21272;SDS011;36726;52.328;10.552;2022-10-16T00:21:04;2.00;;;1.10;;
21272;SDS011;36726;52.328;10.552;2022-10-16T00:23:32;1.10;;;1.00;;
21272;SDS011;36726;52.328;10.552;2022-10-16T00:26:00;3.25;;;1.45;;
21272;SDS011;36726;52.328;10.552;2022-10-16T00:28:28;1.70;;;1.10;;
21272;SDS011;36726;52.328;10.552;2022-10-16T00:30:56;2.83;;;1.20;;
21272;SDS011;36726;52.328;10.552;2022-10-16T00:33:23;2.22;;;1.05;;
21272;SDS011;36726;52.328;10.552;2022-10-16T00:35:50;1.33;;;0.80;;
21272;SDS011;36726;52.328;10.552;2022-10-16T00:38:17;1.30;;;0.88;;
21272;SDS011;36726;52.328;10.552;2022-10-16T00:40:43;1.38;;;0.75;;
21272;SDS011;36726;52.328;10.552;2022-10-16T00:43:53;2.85;;;1.15;;
21272;SDS011;36726;52.328;10.552;2022-10-16T00:46:17;1.33;;;0.85;;
21272;SDS011;36726;52.328;10.552;2022-10-16T00:52:01;1.38;;;1.00;;
21272;SDS011;36726;52.328;10.552;2022-10-16T00:54:25;1.98;;;1.00;;
21272;SDS011;36726;52.328;10.552;2022-10-16T00:56:55;1.55;;;1.20;;
21272;SDS011;36726;52.328;10.552;2022-10-16T00:59:25;1.75;;;1.00;;
21272;SDS011;36726;52.328;10.552;2022-10-16T01:01:54;1.58;;;0.90;;
21272;SDS011;36726;52.328;10.552;2022-10-16T01:04:22;1.35;;;1.00;;
21272;SDS011;36726;52.328;10.552;2022-10-16T01:06:52;0.85;;;0.82;;
21272;SDS011;36726;52.328;10.552;2022-10-16T01:10:02;1.77;;;1.10;;
21272;SDS011;36726;52.328;10.552;2022-10-16T01:12:41;2.97;;;1.30;;
21272;SDS011;36726;52.328;10.552;2022-10-16T01:15:42;1.63;;;1.27;;
21272;SDS011;36726;52.328;10.552;2022-10-16T01:21:13;1.02;;;0.90;;
21272;SDS011;36726;52.328;10.552;2022-10-16T01:32:04;1.95;;;1.02;;
21272;SDS011;36726;52.328;10.552;2022-10-16T01:34:49;2.22;;;1.23;;
21272;SDS011;36726;52.328;10.552;2022-10-16T01:37:28;1.88;;;1.05;;
21272;SDS011;36726;52.328;10.552;2022-10-16T01:40:05;1.55;;;1.10;;
21272;SDS011;36726;52.328;10.552;2022-10-16T01:42:36;1.92;;;1.30;;
21272;SDS011;36726;52.328;10.552;2022-10-16T01:45:24;3.65;;;1.15;;
21272;SDS011;36726;52.328;10.552;2022-10-16T01:47:52;1.52;;;1.13;;
21272;SDS011;36726;52.328;10.552;2022-10-16T01:50:20;2.55;;;1.25;;
21272;SDS011;36726;52.328;10.552;2022-10-16T01:52:48;1.45;;;1.33;;
21272;SDS011;36726;52.328;10.552;2022-10-16T01:55:21;2.85;;;1.30;;
21272;SDS011;36726;52.328;10.552;2022-10-16T01:57:54;2.13;;;1.30;;
21272;SDS011;36726;52.328;10.552;2022-10-16T02:00:21;1.90;;;1.10;;
21272;SDS011;36726;52.328;10.552;2022-10-16T02:02:49;1.85;;;1.08;;
21272;SDS011;36726;52.328;10.552;2022-10-16T02:05:28;2.50;;;1.50;;
21272;SDS011;36726;52.328;10.552;2022-10-16T02:08:00;2.42;;;1.40;;
21272;SDS011;36726;52.328;10.552;2022-10-16T02:10:31;2.58;;;1.50;;
21272;SDS011;36726;52.328;10.552;2022-10-16T02:13:09;2.75;;;1.23;;
21272;SDS011;36726;52.328;10.552;2022-10-16T02:15:39;2.35;;;1.63;;
21272;SDS011;36726;52.328;10.552;2022-10-16T02:18:06;2.92;;;1.30;;
21272;SDS011;36726;52.328;10.552;2022-10-16T02:20:44;2.67;;;1.33;;
21272;SDS011;36726;52.328;10.552;2022-10-16T02:23:20;1.60;;;1.02;;
21272;SDS011;36726;52.328;10.552;2022-10-16T02:25:55;1.67;;;1.20;;
21272;SDS011;36726;52.328;10.552;2022-10-16T02:28:27;1.60;;;1.40;;
21272;SDS011;36726;52.328;10.552;2022-10-16T02:31:03;2.85;;;1.15;;
21272;SDS011;36726;52.328;10.552;2022-10-16T02:33:34;1.90;;;1.13;;
21272;SDS011;36726;52.328;10.552;2022-10-16T02:36:02;1.63;;;0.98;;
21272;SDS011;36726;52.328;10.552;2022-10-16T02:38:29;3.80;;;1.17;;
21272;SDS011;36726;52.328;10.552;2022-10-16T02:40:57;2.20;;;1.20;;
21272;SDS011;36726;52.328;10.552;2022-10-16T02:43:25;0.80;;;0.80;;
21272;SDS011;36726;52.328;10.552;2022-10-16T02:45:52;1.65;;;1.00;;
21272;SDS011;36726;52.328;10.552;2022-10-16T02:48:18;1.75;;;0.90;;
21272;SDS011;36726;52.328;10.552;2022-10-16T02:50:45;1.63;;;0.93;;
21272;SDS011;36726;52.328;10.552;2022-10-16T02:53:12;1.48;;;0.93;;
21272;SDS011;36726;52.328;10.552;2022-10-16T02:55:39;7.60;;;0.90;;
21272;SDS011;36726;52.328;10.552;2022-10-16T02:58:05;2.67;;;1.20;;
21272;SDS011;36726;52.328;10.552;2022-10-16T03:00:32;2.90;;;1.00;;
21272;SDS011;36726;52.328;10.552;2022-10-16T03:02:58;2.20;;;0.98;;
21272;SDS011;36726;52.328;10.552;2022-10-16T03:05:25;1.40;;;0.90;;
21272;SDS011;36726;52.328;10.552;2022-10-16T03:07:51;2.70;;;1.20;;
21272;SDS011;36726;52.328;10.552;2022-10-16T03:10:18;1.65;;;1.20;;
21272;SDS011;36726;52.328;10.552;2022-10-16T03:12:45;1.23;;;1.10;;
21272;SDS011;36726;52.328;10.552;2022-10-16T03:15:12;1.60;;;1.13;;
21272;SDS011;36726;52.328;10.552;2022-10-16T03:17:38;2.33;;;0.90;;
21272;SDS011;36726;52.328;10.552;2022-10-16T03:20:05;1.70;;;1.02;;
21272;SDS011;36726;52.328;10.552;2022-10-16T03:22:32;1.13;;;0.90;;
21272;SDS011;36726;52.328;10.552;2022-10-16T03:24:59;1.20;;;1.10;;
21272;SDS011;36726;52.328;10.552;2022-10-16T03:27:25;1.92;;;0.95;;
21272;SDS011;36726;52.328;10.552;2022-10-16T03:29:52;1.50;;;0.90;;
21272;SDS011;36726;52.328;10.552;2022-10-16T03:32:19;2.70;;;1.15;;
21272;SDS011;36726;52.328;10.552;2022-10-16T03:34:46;0.95;;;0.80;;
21272;SDS011;36726;52.328;10.552;2022-10-16T03:37:13;5.55;;;1.60;;
21272;SDS011;36726;52.328;10.552;2022-10-16T03:39:39;2.00;;;0.90;;
21272;SDS011;36726;52.328;10.552;2022-10-16T03:42:06;2.17;;;1.02;;
21272;SDS011;36726;52.328;10.552;2022-10-16T03:44:32;4.72;;;0.85;;
21272;SDS011;36726;52.328;10.552;2022-10-16T03:46:59;2.80;;;1.30;;
21272;SDS011;36726;52.328;10.552;2022-10-16T03:49:25;3.78;;;1.05;;
21272;SDS011;36726;52.328;10.552;2022-10-16T03:51:52;5.43;;;1.35;;
21272;SDS011;36726;52.328;10.552;2022-10-16T03:54:19;1.20;;;0.98;;
21272;SDS011;36726;52.328;10.552;2022-10-16T03:56:46;1.25;;;0.90;;
21272;SDS011;36726;52.328;10.552;2022-10-16T03:59:12;1.00;;;0.90;;
21272;SDS011;36726;52.328;10.552;2022-10-16T04:01:39;3.17;;;1.00;;
21272;SDS011;36726;52.328;10.552;2022-10-16T04:04:06;1.30;;;0.95;;
21272;SDS011;36726;52.328;10.552;2022-10-16T04:06:32;2.38;;;1.20;;
21272;SDS011;36726;52.328;10.552;2022-10-16T04:08:59;1.15;;;1.00;;
21272;SDS011;36726;52.328;10.552;2022-10-16T04:11:25;1.90;;;1.10;;
21272;SDS011;36726;52.328;10.552;2022-10-16T04:13:52;1.90;;;1.20;;
21272;SDS011;36726;52.328;10.552;2022-10-16T04:16:19;1.35;;;1.20;;
21272;SDS011;36726;52.328;10.552;2022-10-16T04:18:45;2.20;;;1.35;;
21272;SDS011;36726;52.328;10.552;2022-10-16T04:21:12;5.13;;;1.45;;
21272;SDS011;36726;52.328;10.552;2022-10-16T04:23:39;1.50;;;1.15;;
21272;SDS011;36726;52.328;10.552;2022-10-16T04:26:05;2.58;;;1.38;;
21272;SDS011;36726;52.328;10.552;2022-10-16T04:28:32;2.00;;;1.30;;
21272;SDS011;36726;52.328;10.552;2022-10-16T04:30:58;2.20;;;1.27;;
21272;SDS011;36726;52.328;10.552;2022-10-16T04:33:25;2.50;;;1.30;;
21272;SDS011;36726;52.328;10.552;2022-10-16T04:35:58;1.60;;;1.13;;
21272;SDS011;36726;52.328;10.552;2022-10-16T04:38:28;2.33;;;1.40;;
21272;SDS011;36726;52.328;10.552;2022-10-16T04:40:55;1.77;;;0.98;;
21272;SDS011;36726;52.328;10.552;2022-10-16T04:43:22;1.88;;;1.48;;
21272;SDS011;36726;52.328;10.552;2022-10-16T04:45:49;3.70;;;2.25;;
21272;SDS011;36726;52.328;10.552;2022-10-16T04:48:17;2.67;;;2.05;;
21272;SDS011;36726;52.328;10.552;2022-10-16T04:50:44;4.78;;;2.17;;
21272;SDS011;36726;52.328;10.552;2022-10-16T04:53:11;3.33;;;2.15;;
21272;SDS011;36726;52.328;10.552;2022-10-16T04:55:38;4.07;;;1.80;;
21272;SDS011;36726;52.328;10.552;2022-10-16T04:58:05;4.60;;;2.08;;
21272;SDS011;36726;52.328;10.552;2022-10-16T05:00:31;4.00;;;1.80;;
21272;SDS011;36726;52.328;10.552;2022-10-16T05:02:58;3.45;;;1.85;;
21272;SDS011;36726;52.328;10.552;2022-10-16T05:05:27;2.95;;;1.83;;
21272;SDS011;36726;52.328;10.552;2022-10-16T05:07:54;5.57;;;1.60;;
21272;SDS011;36726;52.328;10.552;2022-10-16T05:10:21;2.40;;;1.83;;
21272;SDS011;36726;52.328;10.552;2022-10-16T05:12:48;2.05;;;1.35;;
21272;SDS011;36726;52.328;10.552;2022-10-16T05:15:14;2.53;;;1.52;;
21272;SDS011;36726;52.328;10.552;2022-10-16T05:17:41;2.08;;;1.60;;
21272;SDS011;36726;52.328;10.552;2022-10-16T05:20:10;3.47;;;1.20;;
21272;SDS011;36726;52.328;10.552;2022-10-16T05:22:38;1.88;;;1.33;;
21272;SDS011;36726;52.328;10.552;2022-10-16T05:25:04;4.43;;;1.35;;
21272;SDS011;36726;52.328;10.552;2022-10-16T05:27:31;2.40;;;1.40;;
21272;SDS011;36726;52.328;10.552;2022-10-16T05:29:58;2.53;;;1.65;;
21272;SDS011;36726;52.328;10.552;2022-10-16T05:32:24;2.33;;;1.42;;
21272;SDS011;36726;52.328;10.552;2022-10-16T05:34:51;2.53;;;1.67;;
21272;SDS011;36726;52.328;10.552;2022-10-16T05:37:18;1.83;;;1.58;;
21272;SDS011;36726;52.328;10.552;2022-10-16T05:39:44;5.78;;;1.60;;
21272;SDS011;36726;52.328;10.552;2022-10-16T05:42:11;1.88;;;1.40;;
21272;SDS011;36726;52.328;10.552;2022-10-16T05:44:37;2.28;;;1.70;;
21272;SDS011;36726;52.328;10.552;2022-10-16T05:47:04;1.83;;;1.50;;
21272;SDS011;36726;52.328;10.552;2022-10-16T05:49:31;1.92;;;1.52;;
21272;SDS011;36726;52.328;10.552;2022-10-16T05:51:57;2.17;;;1.50;;
21272;SDS011;36726;52.328;10.552;2022-10-16T05:54:24;2.13;;;1.55;;
21272;SDS011;36726;52.328;10.552;2022-10-16T05:56:50;1.95;;;1.38;;
21272;SDS011;36726;52.328;10.552;2022-10-16T05:59:17;2.22;;;1.63;;
21272;SDS011;36726;52.328;10.552;2022-10-16T06:01:44;2.75;;;1.55;;
21272;SDS011;36726;52.328;10.552;2022-10-16T06:04:10;2.40;;;1.58;;
21272;SDS011;36726;52.328;10.552;2022-10-16T06:06:37;1.98;;;1.40;;
21272;SDS011;36726;52.328;10.552;2022-10-16T06:09:04;2.55;;;1.60;;
21272;SDS011;36726;52.328;10.552;2022-10-16T06:11:31;6.07;;;1.23;;
21272;SDS011;36726;52.328;10.552;2022-10-16T06:14:00;2.83;;;1.75;;
21272;SDS011;36726;52.328;10.552;2022-10-16T06:16:34;2.38;;;1.58;;
21272;SDS011;36726;52.328;10.552;2022-10-16T06:19:02;1.70;;;1.60;;
21272;SDS011;36726;52.328;10.552;2022-10-16T06:21:32;2.47;;;1.60;;
21272;SDS011;36726;52.328;10.552;2022-10-16T06:23:58;2.20;;;1.63;;
21272;SDS011;36726;52.328;10.552;2022-10-16T06:26:26;2.80;;;1.70;;
21272;SDS011;36726;52.328;10.552;2022-10-16T06:28:54;2.67;;;1.42;;
21272;SDS011;36726;52.328;10.552;2022-10-16T06:31:23;1.55;;;1.45;;
21272;SDS011;36726;52.328;10.552;2022-10-16T06:33:54;1.52;;;1.40;;
21272;SDS011;36726;52.328;10.552;2022-10-16T06:36:21;2.15;;;1.52;;
21272;SDS011;36726;52.328;10.552;2022-10-16T06:38:48;3.38;;;1.88;;
21272;SDS011;36726;52.328;10.552;2022-10-16T06:41:15;4.20;;;1.30;;
21272;SDS011;36726;52.328;10.552;2022-10-16T06:43:44;1.80;;;1.33;;
21272;SDS011;36726;52.328;10.552;2022-10-16T06:46:12;2.88;;;1.40;;
21272;SDS011;36726;52.328;10.552;2022-10-16T06:48:40;2.72;;;1.48;;
21272;SDS011;36726;52.328;10.552;2022-10-16T06:51:14;1.95;;;1.33;;
21272;SDS011;36726;52.328;10.552;2022-10-16T06:53:46;2.08;;;1.23;;
21272;SDS011;36726;52.328;10.552;2022-10-16T06:56:31;1.58;;;1.48;;
21272;SDS011;36726;52.328;10.552;2022-10-16T06:58:59;2.15;;;1.40;;
21272;SDS011;36726;52.328;10.552;2022-10-16T07:01:26;1.10;;;1.00;;
21272;SDS011;36726;52.328;10.552;2022-10-16T07:03:53;1.65;;;1.40;;
21272;SDS011;36726;52.328;10.552;2022-10-16T07:06:21;7.95;;;1.80;;
21272;SDS011;36726;52.328;10.552;2022-10-16T07:08:48;4.82;;;1.50;;
21272;SDS011;36726;52.328;10.552;2022-10-16T07:11:17;1.67;;;1.58;;
21272;SDS011;36726;52.328;10.552;2022-10-16T07:13:46;1.73;;;1.58;;
21272;SDS011;36726;52.328;10.552;2022-10-16T07:16:21;1.58;;;1.10;;
21272;SDS011;36726;52.328;10.552;2022-10-16T07:18:53;4.70;;;1.70;;
21272;SDS011;36726;52.328;10.552;2022-10-16T07:21:30;1.40;;;1.30;;
21272;SDS011;36726;52.328;10.552;2022-10-16T07:24:02;2.97;;;1.40;;
21272;SDS011;36726;52.328;10.552;2022-10-16T07:26:32;2.15;;;1.10;;
21272;SDS011;36726;52.328;10.552;2022-10-16T07:29:01;1.48;;;1.10;;
21272;SDS011;36726;52.328;10.552;2022-10-16T07:31:28;2.55;;;1.23;;
21272;SDS011;36726;52.328;10.552;2022-10-16T07:33:55;1.08;;;1.00;;
21272;SDS011;36726;52.328;10.552;2022-10-16T07:36:24;3.28;;;1.40;;
21272;SDS011;36726;52.328;10.552;2022-10-16T07:38:51;2.65;;;1.38;;
21272;SDS011;36726;52.328;10.552;2022-10-16T07:41:24;4.38;;;1.50;;
21272;SDS011;36726;52.328;10.552;2022-10-16T07:43:51;1.20;;;1.10;;
21272;SDS011;36726;52.328;10.552;2022-10-16T07:46:19;1.88;;;1.10;;
21272;SDS011;36726;52.328;10.552;2022-10-16T07:48:47;1.98;;;1.05;;
21272;SDS011;36726;52.328;10.552;2022-10-16T07:51:16;1.70;;;1.00;;
21272;SDS011;36726;52.328;10.552;2022-10-16T07:53:44;1.50;;;1.15;;
21272;SDS011;36726;52.328;10.552;2022-10-16T07:56:11;1.25;;;0.80;;
21272;SDS011;36726;52.328;10.552;2022-10-16T07:58:39;1.35;;;0.90;;
21272;SDS011;36726;52.328;10.552;2022-10-16T08:01:07;1.08;;;0.75;;
21272;SDS011;36726;52.328;10.552;2022-10-16T08:03:36;1.13;;;0.90;;
21272;SDS011;36726;52.328;10.552;2022-10-16T08:06:03;0.70;;;0.70;;
21272;SDS011;36726;52.328;10.552;2022-10-16T08:08:30;1.63;;;0.80;;
21272;SDS011;36726;52.328;10.552;2022-10-16T08:10:57;1.60;;;0.80;;
21272;SDS011;36726;52.328;10.552;2022-10-16T08:13:24;0.93;;;0.60;;
21272;SDS011;36726;52.328;10.552;2022-10-16T08:15:53;0.90;;;0.77;;
21272;SDS011;36726;52.328;10.552;2022-10-16T08:18:20;1.63;;;0.60;;
21272;SDS011;36726;52.328;10.552;2022-10-16T08:20:46;0.60;;;0.60;;
21272;SDS011;36726;52.328;10.552;2022-10-16T08:23:13;0.70;;;0.60;;
21272;SDS011;36726;52.328;10.552;2022-10-16T08:25:40;1.52;;;0.63;;
21272;SDS011;36726;52.328;10.552;2022-10-16T08:28:08;3.33;;;0.80;;
21272;SDS011;36726;52.328;10.552;2022-10-16T08:30:36;1.60;;;0.70;;
21272;SDS011;36726;52.328;10.552;2022-10-16T08:33:03;1.02;;;0.60;;
21272;SDS011;36726;52.328;10.552;2022-10-16T08:35:30;0.60;;;0.52;;
21272;SDS011;36726;52.328;10.552;2022-10-16T08:37:57;0.95;;;0.70;;
21272;SDS011;36726;52.328;10.552;2022-10-16T08:40:27;2.78;;;0.77;;
21272;SDS011;36726;52.328;10.552;2022-10-16T08:51:08;0.88;;;0.68;;
21272;SDS011;36726;52.328;10.552;2022-10-16T08:53:43;1.67;;;0.77;;
21272;SDS011;36726;52.328;10.552;2022-10-16T08:56:15;0.75;;;0.57;;
21272;SDS011;36726;52.328;10.552;2022-10-16T08:58:43;2.30;;;0.80;;
21272;SDS011;36726;52.328;10.552;2022-10-16T09:01:14;0.90;;;0.50;;
21272;SDS011;36726;52.328;10.552;2022-10-16T09:06:26;0.75;;;0.45;;
21272;SDS011;36726;52.328;10.552;2022-10-16T09:09:06;1.20;;;0.63;;
21272;SDS011;36726;52.328;10.552;2022-10-16T09:11:41;0.80;;;0.68;;
21272;SDS011;36726;52.328;10.552;2022-10-16T09:19:46;0.70;;;0.45;;
21272;SDS011;36726;52.328;10.552;2022-10-16T09:22:21;1.05;;;0.52;;
21272;SDS011;36726;52.328;10.552;2022-10-16T09:24:54;1.15;;;0.60;;
21272;SDS011;36726;52.328;10.552;2022-10-16T09:27:25;0.90;;;0.70;;
21272;SDS011;36726;52.328;10.552;2022-10-16T09:29:53;0.77;;;0.47;;
21272;SDS011;36726;52.328;10.552;2022-10-16T09:32:25;1.42;;;0.63;;
21272;SDS011;36726;52.328;10.552;2022-10-16T09:34:52;3.78;;;0.73;;
21272;SDS011;36726;52.328;10.552;2022-10-16T09:37:22;1.65;;;0.65;;
21272;SDS011;36726;52.328;10.552;2022-10-16T09:39:52;1.63;;;0.55;;
21272;SDS011;36726;52.328;10.552;2022-10-16T09:42:20;2.05;;;0.50;;
21272;SDS011;36726;52.328;10.552;2022-10-16T09:44:52;0.63;;;0.40;;
21272;SDS011;36726;52.328;10.552;2022-10-16T09:47:23;0.77;;;0.60;;
21272;SDS011;36726;52.328;10.552;2022-10-16T09:52:20;0.73;;;0.50;;
21272;SDS011;36726;52.328;10.552;2022-10-16T09:54:53;0.85;;;0.70;;
21272;SDS011;36726;52.328;10.552;2022-10-16T09:57:21;0.85;;;0.65;;
21272;SDS011;36726;52.328;10.552;2022-10-16T09:59:48;1.00;;;0.55;;
21272;SDS011;36726;52.328;10.552;2022-10-16T10:02:23;0.95;;;0.38;;
21272;SDS011;36726;52.328;10.552;2022-10-16T10:04:54;0.68;;;0.60;;
21272;SDS011;36726;52.328;10.552;2022-10-16T10:07:26;0.70;;;0.30;;
21272;SDS011;36726;52.328;10.552;2022-10-16T10:09:56;2.33;;;0.70;;
21272;SDS011;36726;52.328;10.552;2022-10-16T10:12:24;1.10;;;0.47;;
21272;SDS011;36726;52.328;10.552;2022-10-16T10:14:55;0.68;;;0.40;;
21272;SDS011;36726;52.328;10.552;2022-10-16T10:17:24;4.00;;;0.63;;
21272;SDS011;36726;52.328;10.552;2022-10-16T10:19:55;0.55;;;0.40;;
21272;SDS011;36726;52.328;10.552;2022-10-16T10:22:32;1.25;;;0.60;;
21272;SDS011;36726;52.328;10.552;2022-10-16T10:27:49;2.35;;;0.47;;
21272;SDS011;36726;52.328;10.552;2022-10-16T10:30:47;0.82;;;0.40;;
21272;SDS011;36726;52.328;10.552;2022-10-16T10:33:19;0.80;;;0.40;;
21272;SDS011;36726;52.328;10.552;2022-10-16T10:38:49;0.95;;;0.40;;
21272;SDS011;36726;52.328;10.552;2022-10-16T10:44:07;1.13;;;0.40;;
21272;SDS011;36726;52.328;10.552;2022-10-16T10:49:47;0.52;;;0.30;;
21272;SDS011;36726;52.328;10.552;2022-10-16T10:55:01;0.57;;;0.35;;
21272;SDS011;36726;52.328;10.552;2022-10-16T11:03:45;0.55;;;0.32;;
21272;SDS011;36726;52.328;10.552;2022-10-16T11:06:39;0.80;;;0.45;;
21272;SDS011;36726;52.328;10.552;2022-10-16T11:11:43;0.77;;;0.40;;
21272;SDS011;36726;52.328;10.552;2022-10-16T11:14:24;1.42;;;0.40;;
21272;SDS011;36726;52.328;10.552;2022-10-16T11:22:27;0.77;;;0.38;;
21272;SDS011;36726;52.328;10.552;2022-10-16T11:25:11;1.50;;;0.40;;
21272;SDS011;36726;52.328;10.552;2022-10-16T11:30:39;0.63;;;0.30;;
21272;SDS011;36726;52.328;10.552;2022-10-16T11:33:20;0.88;;;0.32;;
21272;SDS011;36726;52.328;10.552;2022-10-16T11:36:03;0.88;;;0.30;;
21272;SDS011;36726;52.328;10.552;2022-10-16T11:41:29;0.90;;;0.20;;
21272;SDS011;36726;52.328;10.552;2022-10-16T11:50:00;0.77;;;0.50;;
21272;SDS011;36726;52.328;10.552;2022-10-16T11:55:41;0.57;;;0.32;;
21272;SDS011;36726;52.328;10.552;2022-10-16T12:04:43;2.80;;;0.40;;
21272;SDS011;36726;52.328;10.552;2022-10-16T12:07:04;1.17;;;0.40;;
21272;SDS011;36726;52.328;10.552;2022-10-16T12:09:36;0.90;;;0.38;;
21272;SDS011;36726;52.328;10.552;2022-10-16T12:15:15;2.38;;;0.60;;
21272;SDS011;36726;52.328;10.552;2022-10-16T12:18:07;0.20;;;0.20;;
21272;SDS011;36726;52.328;10.552;2022-10-16T12:20:53;0.90;;;0.40;;
21272;SDS011;36726;52.328;10.552;2022-10-16T12:23:25;0.43;;;0.25;;
21272;SDS011;36726;52.328;10.552;2022-10-16T12:25:55;1.38;;;0.30;;
21272;SDS011;36726;52.328;10.552;2022-10-16T12:28:27;3.45;;;0.60;;
21272;SDS011;36726;52.328;10.552;2022-10-16T12:30:58;1.00;;;0.90;;
21272;SDS011;36726;52.328;10.552;2022-10-16T12:33:27;0.93;;;0.52;;
21272;SDS011;36726;52.328;10.552;2022-10-16T12:35:55;0.80;;;0.40;;
21272;SDS011;36726;52.328;10.552;2022-10-16T12:38:25;0.90;;;0.43;;
21272;SDS011;36726;52.328;10.552;2022-10-16T12:41:00;0.80;;;0.40;;
21272;SDS011;36726;52.328;10.552;2022-10-16T12:43:45;2.03;;;0.60;;
21272;SDS011;36726;52.328;10.552;2022-10-16T12:48:40;1.05;;;0.20;;
21272;SDS011;36726;52.328;10.552;2022-10-16T12:53:59;1.50;;;0.30;;
21272;SDS011;36726;52.328;10.552;2022-10-16T13:04:43;0.60;;;0.20;;
21272;SDS011;36726;52.328;10.552;2022-10-16T13:13:06;0.43;;;0.22;;
21272;SDS011;36726;52.328;10.552;2022-10-16T13:15:56;1.65;;;0.22;;
21272;SDS011;36726;52.328;10.552;2022-10-16T13:18:29;0.32;;;0.28;;
21272;SDS011;36726;52.328;10.552;2022-10-16T13:21:04;0.50;;;0.30;;
21272;SDS011;36726;52.328;10.552;2022-10-16T13:23:51;0.47;;;0.30;;
21272;SDS011;36726;52.328;10.552;2022-10-16T13:29:03;2.95;;;0.40;;
21272;SDS011;36726;52.328;10.552;2022-10-16T13:31:30;0.22;;;0.22;;
21272;SDS011;36726;52.328;10.552;2022-10-16T13:33:58;0.60;;;0.30;;
21272;SDS011;36726;52.328;10.552;2022-10-16T13:36:27;1.60;;;0.20;;
21272;SDS011;36726;52.328;10.552;2022-10-16T13:39:00;1.08;;;0.50;;
21272;SDS011;36726;52.328;10.552;2022-10-16T13:41:35;0.90;;;0.30;;
21272;SDS011;36726;52.328;10.552;2022-10-16T13:44:02;4.82;;;0.65;;
21272;SDS011;36726;52.328;10.552;2022-10-16T13:46:29;2.72;;;0.30;;
21272;SDS011;36726;52.328;10.552;2022-10-16T13:49:04;0.30;;;0.30;;
21272;SDS011;36726;52.328;10.552;2022-10-16T13:51:37;0.52;;;0.30;;
21272;SDS011;36726;52.328;10.552;2022-10-16T13:54:04;3.55;;;0.47;;
21272;SDS011;36726;52.328;10.552;2022-10-16T13:56:31;0.63;;;0.40;;
21272;SDS011;36726;52.328;10.552;2022-10-16T13:59:06;0.80;;;0.40;;
21272;SDS011;36726;52.328;10.552;2022-10-16T14:01:48;0.50;;;0.30;;
21272;SDS011;36726;52.328;10.552;2022-10-16T14:04:17;0.57;;;0.40;;
21272;SDS011;36726;52.328;10.552;2022-10-16T14:06:45;0.38;;;0.20;;
21272;SDS011;36726;52.328;10.552;2022-10-16T14:11:56;0.65;;;0.30;;
21272;SDS011;36726;52.328;10.552;2022-10-16T14:14:27;0.82;;;0.38;;
21272;SDS011;36726;52.328;10.552;2022-10-16T14:17:00;0.73;;;0.20;;
21272;SDS011;36726;52.328;10.552;2022-10-16T14:19:29;0.85;;;0.30;;
21272;SDS011;36726;52.328;10.552;2022-10-16T14:21:57;0.65;;;0.30;;
21272;SDS011;36726;52.328;10.552;2022-10-16T14:24:32;0.30;;;0.20;;
21272;SDS011;36726;52.328;10.552;2022-10-16T14:27:00;0.65;;;0.10;;
21272;SDS011;36726;52.328;10.552;2022-10-16T14:29:28;0.20;;;0.20;;
21272;SDS011;36726;52.328;10.552;2022-10-16T14:32:02;0.80;;;0.20;;
21272;SDS011;36726;52.328;10.552;2022-10-16T14:34:33;0.30;;;0.25;;
21272;SDS011;36726;52.328;10.552;2022-10-16T14:37:08;0.70;;;0.30;;
21272;SDS011;36726;52.328;10.552;2022-10-16T14:39:53;2.05;;;0.20;;
21272;SDS011;36726;52.328;10.552;2022-10-16T14:42:22;0.47;;;0.20;;
21272;SDS011;36726;52.328;10.552;2022-10-16T14:44:51;1.83;;;0.30;;
21272;SDS011;36726;52.328;10.552;2022-10-16T14:47:24;1.83;;;0.40;;
21272;SDS011;36726;52.328;10.552;2022-10-16T14:49:53;0.55;;;0.40;;
21272;SDS011;36726;52.328;10.552;2022-10-16T14:52:22;0.40;;;0.22;;
21272;SDS011;36726;52.328;10.552;2022-10-16T14:54:48;0.25;;;0.20;;
21272;SDS011;36726;52.328;10.552;2022-10-16T14:57:16;0.20;;;0.20;;
21272;SDS011;36726;52.328;10.552;2022-10-16T14:59:45;0.70;;;0.38;;
21272;SDS011;36726;52.328;10.552;2022-10-16T15:04:54;0.70;;;0.35;;
21272;SDS011;36726;52.328;10.552;2022-10-16T15:07:22;0.77;;;0.30;;
21272;SDS011;36726;52.328;10.552;2022-10-16T15:09:49;0.68;;;0.20;;
21272;SDS011;36726;52.328;10.552;2022-10-16T15:12:16;0.43;;;0.20;;
21272;SDS011;36726;52.328;10.552;2022-10-16T15:14:43;0.77;;;0.25;;
21272;SDS011;36726;52.328;10.552;2022-10-16T15:17:10;0.70;;;0.30;;
21272;SDS011;36726;52.328;10.552;2022-10-16T15:19:37;1.05;;;0.30;;
21272;SDS011;36726;52.328;10.552;2022-10-16T15:22:04;0.63;;;0.28;;
21272;SDS011;36726;52.328;10.552;2022-10-16T15:24:31;0.80;;;0.40;;
21272;SDS011;36726;52.328;10.552;2022-10-16T15:26:57;0.50;;;0.35;;
21272;SDS011;36726;52.328;10.552;2022-10-16T15:29:24;0.50;;;0.30;;
21272;SDS011;36726;52.328;10.552;2022-10-16T15:31:51;0.68;;;0.30;;
21272;SDS011;36726;52.328;10.552;2022-10-16T15:34:17;0.40;;;0.30;;
21272;SDS011;36726;52.328;10.552;2022-10-16T15:36:46;0.70;;;0.20;;
21272;SDS011;36726;52.328;10.552;2022-10-16T15:39:13;0.80;;;0.30;;
21272;SDS011;36726;52.328;10.552;2022-10-16T15:41:42;0.47;;;0.38;;
21272;SDS011;36726;52.328;10.552;2022-10-16T15:44:10;0.32;;;0.22;;
21272;SDS011;36726;52.328;10.552;2022-10-16T15:46:37;0.57;;;0.28;;
21272;SDS011;36726;52.328;10.552;2022-10-16T15:49:04;0.52;;;0.20;;
21272;SDS011;36726;52.328;10.552;2022-10-16T15:51:49;1.00;;;0.30;;
21272;SDS011;36726;52.328;10.552;2022-10-16T15:54:18;0.35;;;0.30;;
21272;SDS011;36726;52.328;10.552;2022-10-16T15:56:47;1.05;;;0.40;;
21272;SDS011;36726;52.328;10.552;2022-10-16T15:59:15;0.73;;;0.30;;
21272;SDS011;36726;52.328;10.552;2022-10-16T16:01:42;3.03;;;2.10;;
21272;SDS011;36726;52.328;10.552;2022-10-16T16:04:09;10.27;;;5.72;;
21272;SDS011;36726;52.328;10.552;2022-10-16T16:06:56;1.50;;;1.20;;
21272;SDS011;36726;52.328;10.552;2022-10-16T16:09:23;0.47;;;0.40;;
21272;SDS011;36726;52.328;10.552;2022-10-16T16:11:49;1.35;;;0.40;;
21272;SDS011;36726;52.328;10.552;2022-10-16T16:14:18;0.47;;;0.32;;
21272;SDS011;36726;52.328;10.552;2022-10-16T16:16:45;1.27;;;0.45;;
21272;SDS011;36726;52.328;10.552;2022-10-16T16:19:11;1.00;;;0.45;;
21272;SDS011;36726;52.328;10.552;2022-10-16T16:21:38;0.90;;;0.40;;
21272;SDS011;36726;52.328;10.552;2022-10-16T16:24:05;0.88;;;0.40;;
21272;SDS011;36726;52.328;10.552;2022-10-16T16:26:35;4.22;;;0.98;;
21272;SDS011;36726;52.328;10.552;2022-10-16T16:29:05;1.73;;;0.77;;
21272;SDS011;36726;52.328;10.552;2022-10-16T16:31:32;0.50;;;0.45;;
21272;SDS011;36726;52.328;10.552;2022-10-16T16:34:00;2.83;;;0.80;;
21272;SDS011;36726;52.328;10.552;2022-10-16T16:36:27;1.45;;;0.70;;
21272;SDS011;36726;52.328;10.552;2022-10-16T16:38:54;1.80;;;0.80;;
21272;SDS011;36726;52.328;10.552;2022-10-16T16:41:21;2.15;;;1.00;;
21272;SDS011;36726;52.328;10.552;2022-10-16T16:43:51;2.65;;;1.30;;